createdAt,value
2018-11-06T00:00:33.864Z,99.99
2018-11-06T00:01:33.856Z,99.99
2018-11-06T00:02:33.843Z,99.99
2018-11-06T00:03:33.822Z,99.99
2018-11-06T00:04:33.804Z,99.99
2018-11-06T00:05:33.810Z,99.99
2018-11-06T00:06:33.781Z,99.99
2018-11-06T00:07:33.784Z,99.99
2018-11-06T00:08:33.769Z,99.99
2018-11-06T00:09:33.739Z,99.99
2018-11-06T00:10:33.751Z,99.99
2018-11-06T00:11:33.719Z,99.99
2018-11-06T00:12:33.707Z,99.99
2018-11-06T00:13:33.697Z,99.99
2018-11-06T00:14:33.720Z,99.99
2018-11-06T00:15:33.678Z,99.99
2018-11-06T00:16:33.662Z,99.99
2018-11-06T00:17:33.673Z,99.99
2018-11-06T00:18:33.638Z,99.99
2018-11-06T00:19:33.636Z,99.99
2018-11-06T00:20:33.659Z,99.99
2018-11-06T00:21:33.609Z,99.99
2018-11-06T00:22:33.621Z,99.99
2018-11-06T00:23:33.587Z,99.99
2018-11-06T00:24:33.577Z,99.99
2018-11-06T00:25:33.587Z,99.99
2018-11-06T00:26:33.559Z,99.99
2018-11-06T00:27:33.579Z,99.99
2018-11-06T00:28:33.529Z,99.99
2018-11-06T00:29:33.526Z,99.99
2018-11-06T00:30:33.513Z,99.99
2018-11-06T00:31:33.496Z,99.99
2018-11-06T00:32:33.516Z,99.99
2018-11-06T00:33:33.497Z,99.99
2018-11-06T00:34:33.461Z,99.99
2018-11-06T00:35:33.465Z,99.99
2018-11-06T00:36:33.462Z,99.99
2018-11-06T00:37:33.430Z,99.99
2018-11-06T00:38:33.440Z,99.99
2018-11-06T00:39:33.425Z,99.99
2018-11-06T00:40:33.400Z,99.99
2018-11-06T00:41:33.383Z,99.99
2018-11-06T00:42:33.373Z,99.99
2018-11-06T00:43:33.378Z,99.99
2018-11-06T00:44:33.399Z,99.99
2018-11-06T00:45:33.335Z,99.99
2018-11-06T00:46:33.323Z,99.99
2018-11-06T00:47:33.318Z,99.99
2018-11-06T00:48:33.327Z,99.99
2018-11-06T00:49:33.313Z,99.99
2018-11-06T00:50:33.280Z,99.99
2018-11-06T00:51:33.291Z,99.99
2018-11-06T00:52:33.258Z,99.99
2018-11-06T00:53:33.255Z,99.99
2018-11-06T00:54:33.270Z,99.99
2018-11-06T00:55:33.222Z,99.99
2018-11-06T00:56:33.237Z,99.99
2018-11-06T00:57:33.208Z,99.99
2018-11-06T00:58:33.200Z,99.99
2018-11-06T00:59:33.197Z,99.99
2018-11-06T01:00:33.203Z,99.99
2018-11-06T01:01:33.191Z,99.99
2018-11-06T01:02:33.145Z,99.99
2018-11-06T01:03:33.133Z,99.99
2018-11-06T01:04:33.127Z,99.99
2018-11-06T01:05:33.115Z,99.99
2018-11-06T01:06:33.150Z,99.99
2018-11-06T01:07:33.091Z,99.99
2018-11-06T01:08:33.083Z,99.99
2018-11-06T01:09:33.065Z,99.99
2018-11-06T01:10:33.058Z,99.99
2018-11-06T01:11:33.068Z,99.99
2018-11-06T01:12:33.059Z,99.99
2018-11-06T01:13:33.042Z,99.99
2018-11-06T01:14:33.009Z,99.99
2018-11-06T01:15:32.998Z,99.99
2018-11-06T01:16:32.987Z,99.99
2018-11-06T01:17:33.001Z,99.99
2018-11-06T01:18:32.999Z,99.99
2018-11-06T01:19:32.953Z,99.99
2018-11-06T01:20:32.941Z,99.99
2018-11-06T01:21:32.958Z,99.99
2018-11-06T01:22:32.953Z,99.99
2018-11-06T01:23:32.922Z,99.99
2018-11-06T01:24:32.907Z,99.99
2018-11-06T01:25:32.885Z,99.99
2018-11-06T01:26:32.905Z,99.99
2018-11-06T01:27:32.890Z,99.99
2018-11-06T01:28:32.858Z,99.99
2018-11-06T01:29:32.858Z,99.99
2018-11-06T01:30:32.829Z,99.99
2018-11-06T01:31:32.841Z,99.99
2018-11-06T01:32:32.815Z,99.99
2018-11-06T01:33:32.800Z,99.99
2018-11-06T01:34:32.788Z,99.99
2018-11-06T01:35:32.795Z,99.99
2018-11-06T01:36:32.793Z,99.99
2018-11-06T01:37:32.761Z,99.99
2018-11-06T01:38:32.744Z,99.99
2018-11-06T01:39:32.757Z,99.99
2018-11-06T01:40:32.729Z,99.99
2018-11-06T01:41:32.711Z,99.99
2018-11-06T01:42:32.708Z,99.99
2018-11-06T01:43:32.709Z,99.99
2018-11-06T01:44:32.675Z,99.99
2018-11-06T01:45:32.671Z,99.99
2018-11-06T01:46:32.667Z,99.99
2018-11-06T01:47:32.639Z,99.99
2018-11-06T01:48:32.654Z,99.99
2018-11-06T01:49:32.634Z,99.99
2018-11-06T01:50:32.631Z,99.99
2018-11-06T01:51:32.695Z,99.99
2018-11-06T01:52:32.597Z,99.99
2018-11-06T01:53:32.575Z,99.99
2018-11-06T01:54:32.601Z,99.99
2018-11-06T01:55:32.574Z,99.99
2018-11-06T01:56:32.538Z,99.99
2018-11-06T01:57:32.529Z,99.99
2018-11-06T01:58:32.519Z,99.99
2018-11-06T01:59:32.542Z,99.99
2018-11-06T02:00:32.493Z,99.99
2018-11-06T02:01:32.496Z,99.99
2018-11-06T02:02:32.478Z,99.99
2018-11-06T02:03:32.492Z,99.99
2018-11-06T02:04:32.447Z,99.99
2018-11-06T02:05:32.465Z,99.99
2018-11-06T02:06:32.451Z,99.99
2018-11-06T02:07:32.416Z,99.99
2018-11-06T02:08:32.405Z,99.99
2018-11-06T02:09:32.411Z,99.99
2018-11-06T02:10:32.428Z,99.99
2018-11-06T02:11:32.370Z,99.99
2018-11-06T02:12:32.358Z,99.99
2018-11-06T02:13:32.374Z,99.99
2018-11-06T02:14:32.342Z,99.99
2018-11-06T02:15:32.337Z,99.99
2018-11-06T02:16:32.315Z,99.99
2018-11-06T02:17:32.328Z,99.99
2018-11-06T02:18:32.291Z,99.99
2018-11-06T02:19:32.279Z,99.99
2018-11-06T02:20:40.323Z,99.99
2018-11-06T02:21:32.286Z,99.99
2018-11-06T02:22:32.246Z,99.99
2018-11-06T02:23:40.290Z,99.99
2018-11-06T02:24:40.301Z,99.99
2018-11-06T02:25:32.211Z,99.99
2018-11-06T02:26:32.231Z,99.99
2018-11-06T02:27:32.227Z,99.99
2018-11-06T02:28:32.180Z,99.99
2018-11-06T02:29:32.201Z,99.99
2018-11-06T02:30:32.169Z,99.99
2018-11-06T02:31:32.148Z,99.99
2018-11-06T02:32:32.267Z,99.99
2018-11-06T02:33:32.122Z,99.99
2018-11-06T02:34:32.111Z,99.99
2018-11-06T02:35:32.102Z,99.99
2018-11-06T02:36:32.096Z,99.99
2018-11-06T02:37:32.109Z,99.99
2018-11-06T02:38:32.096Z,99.99
2018-11-06T02:39:32.062Z,99.99
2018-11-06T02:40:32.045Z,99.99
2018-11-06T02:41:32.062Z,99.99
2018-11-06T02:42:32.023Z,99.99
2018-11-06T02:43:32.046Z,99.99
2018-11-06T02:44:32.004Z,99.99
2018-11-06T02:45:31.998Z,99.99
2018-11-06T02:46:31.978Z,99.99
2018-11-06T02:47:31.967Z,99.99
2018-11-06T02:48:31.995Z,99.99
2018-11-06T02:49:31.961Z,99.99
2018-11-06T02:50:31.967Z,99.99
2018-11-06T02:51:31.922Z,99.99
2018-11-06T02:52:31.975Z,99.99
2018-11-06T02:53:31.900Z,99.99
2018-11-06T02:54:31.892Z,99.99
2018-11-06T02:55:31.898Z,99.99
2018-11-06T02:56:31.868Z,99.99
2018-11-06T02:57:31.884Z,99.99
2018-11-06T02:58:31.879Z,99.99
2018-11-06T02:59:31.836Z,99.99
2018-11-06T03:00:31.858Z,99.99
2018-11-06T03:01:31.810Z,99.99
2018-11-06T03:02:31.798Z,99.99
2018-11-06T03:03:31.786Z,99.99
2018-11-06T03:04:31.786Z,99.99
2018-11-06T03:05:31.795Z,99.99
2018-11-06T03:06:31.775Z,99.99
2018-11-06T03:07:31.844Z,99.99
2018-11-06T03:08:31.734Z,99.99
2018-11-06T03:09:31.723Z,99.99
2018-11-06T03:10:31.765Z,99.99
2018-11-06T03:11:31.720Z,99.99
2018-11-06T03:12:31.696Z,99.99
2018-11-06T03:13:31.722Z,99.99
2018-11-06T03:14:31.690Z,99.99
2018-11-06T03:15:31.656Z,99.99
2018-11-06T03:16:31.641Z,99.99
2018-11-06T03:17:31.633Z,99.99
2018-11-06T03:18:31.648Z,99.99
2018-11-06T03:19:31.608Z,99.99
2018-11-06T03:20:31.600Z,99.99
2018-11-06T03:21:31.624Z,99.99
2018-11-06T03:22:31.601Z,99.99
2018-11-06T03:23:31.567Z,99.99
2018-11-06T03:24:31.584Z,99.99
2018-11-06T03:25:31.539Z,99.99
2018-11-06T03:26:31.530Z,99.99
2018-11-06T03:27:31.542Z,99.99
2018-11-06T03:28:31.506Z,99.99
2018-11-06T03:29:31.547Z,99.99
2018-11-06T03:30:31.511Z,99.99
2018-11-06T03:31:31.475Z,99.99
2018-11-06T03:32:31.500Z,99.99
2018-11-06T03:33:31.451Z,99.99
2018-11-06T03:34:31.446Z,99.99
2018-11-06T03:35:31.455Z,99.99
2018-11-06T03:36:31.419Z,99.99
2018-11-06T03:37:31.467Z,99.99
2018-11-06T03:38:31.403Z,99.99
2018-11-06T03:39:31.388Z,99.99
2018-11-06T03:40:31.377Z,99.99
2018-11-06T03:41:31.379Z,99.99
2018-11-06T03:42:31.378Z,99.99
2018-11-06T03:43:31.417Z,99.99
2018-11-06T03:44:31.328Z,99.99
2018-11-06T03:45:31.316Z,99.99
2018-11-06T03:46:31.323Z,99.99
2018-11-06T03:47:31.321Z,99.99
2018-11-06T03:48:31.282Z,99.99
2018-11-06T03:49:31.300Z,99.99
2018-11-06T03:50:31.290Z,99.99
2018-11-06T03:51:31.249Z,99.99
2018-11-06T03:52:31.247Z,99.99
2018-11-06T03:53:31.258Z,99.99
2018-11-06T03:54:31.231Z,99.99
2018-11-06T03:55:31.207Z,99.99
2018-11-06T03:56:31.192Z,99.99
2018-11-06T03:57:31.212Z,99.99
2018-11-06T03:58:31.176Z,99.99
2018-11-06T03:59:31.161Z,99.99
2018-11-06T04:00:31.210Z,99.99
2018-11-06T04:01:31.136Z,99.99
2018-11-06T04:02:31.124Z,99.99
2018-11-06T04:03:31.118Z,99.99
2018-11-06T04:04:31.124Z,99.99
2018-11-06T04:05:31.124Z,99.99
2018-11-06T04:06:31.084Z,99.99
2018-11-06T04:07:31.075Z,99.99
2018-11-06T04:08:31.063Z,99.99
2018-11-06T04:09:31.056Z,99.99
2018-11-06T04:10:31.066Z,99.99
2018-11-06T04:11:31.029Z,99.99
2018-11-06T04:12:31.014Z,99.99
2018-11-06T04:13:31.005Z,99.99
2018-11-06T04:14:30.993Z,99.99
2018-11-06T04:15:31.013Z,99.99
2018-11-06T04:16:31.000Z,99.99
2018-11-06T04:17:30.957Z,99.99
2018-11-06T04:18:30.951Z,99.99
2018-11-06T04:19:31.011Z,99.99
2018-11-06T04:20:30.922Z,99.99
2018-11-06T04:21:30.950Z,99.99
2018-11-06T04:22:30.900Z,99.99
2018-11-06T04:23:30.943Z,99.99
2018-11-06T04:24:30.886Z,99.99
2018-11-06T04:25:30.893Z,99.99
2018-11-06T04:26:30.867Z,99.99
2018-11-06T04:27:30.892Z,99.99
2018-11-06T04:28:30.835Z,99.99
2018-11-06T04:29:30.822Z,99.99
2018-11-06T04:30:30.810Z,99.99
2018-11-06T04:31:30.823Z,99.99
2018-11-06T04:32:30.839Z,99.99
2018-11-06T04:33:30.799Z,99.99
2018-11-06T04:34:30.764Z,99.99
2018-11-06T04:35:30.754Z,99.99
2018-11-06T04:36:30.769Z,99.99
2018-11-06T04:37:30.734Z,99.99
2018-11-06T04:38:30.724Z,99.99
2018-11-06T04:39:30.708Z,99.99
2018-11-06T04:40:30.766Z,99.99
2018-11-06T04:41:30.688Z,99.99
2018-11-06T04:42:30.681Z,99.99
2018-11-06T04:43:30.666Z,99.99
2018-11-06T04:44:30.662Z,99.99
2018-11-06T04:45:30.678Z,99.99
2018-11-06T04:46:30.637Z,99.99
2018-11-06T04:47:30.646Z,99.99
2018-11-06T04:48:30.619Z,99.99
2018-11-06T04:49:30.602Z,99.99
2018-11-06T04:50:30.624Z,99.99
2018-11-06T04:51:30.607Z,99.99
2018-11-06T04:52:30.566Z,99.99
2018-11-06T04:53:30.579Z,99.99
2018-11-06T04:54:30.544Z,99.99
2018-11-06T04:55:30.532Z,99.99
2018-11-06T04:56:30.550Z,99.99
2018-11-06T04:57:30.531Z,99.99
2018-11-06T04:58:30.498Z,99.99
2018-11-06T04:59:30.509Z,99.99
2018-11-06T05:00:30.475Z,99.99
2018-11-06T05:01:30.486Z,99.99
2018-11-06T05:02:30.478Z,99.99
2018-11-06T05:03:30.487Z,99.99
2018-11-06T05:04:30.428Z,99.99
2018-11-06T05:05:30.417Z,99.99
2018-11-06T05:06:30.468Z,99.99
2018-11-06T05:07:30.401Z,99.99
2018-11-06T05:08:30.389Z,99.99
2018-11-06T05:09:30.373Z,99.99
2018-11-06T05:10:30.367Z,99.99
2018-11-06T05:11:30.373Z,99.99
2018-11-06T05:12:30.360Z,99.99
2018-11-06T05:13:30.328Z,99.99
2018-11-06T05:14:30.358Z,99.99
2018-11-06T05:15:30.309Z,99.99
2018-11-06T05:16:30.293Z,99.99
2018-11-06T05:17:30.283Z,99.99
2018-11-06T05:18:30.291Z,99.99
2018-11-06T05:19:30.290Z,99.99
2018-11-06T05:20:30.251Z,99.99
2018-11-06T05:21:30.253Z,99.99
2018-11-06T05:22:30.225Z,99.99
2018-11-06T05:23:30.240Z,99.99
2018-11-06T05:24:30.233Z,99.99
2018-11-06T05:25:30.330Z,99.99
2018-11-06T05:26:30.225Z,99.99
2018-11-06T05:27:30.402Z,99.99
2018-11-06T05:28:30.160Z,99.99
2018-11-06T05:29:30.153Z,99.99
2018-11-06T05:30:30.149Z,99.99
2018-11-06T05:31:30.150Z,99.99
2018-11-06T05:32:30.118Z,99.99
2018-11-06T05:33:30.134Z,99.99
2018-11-06T05:34:30.091Z,99.99
2018-11-06T05:35:30.092Z,99.99
2018-11-06T05:36:30.069Z,99.99
2018-11-06T05:37:30.089Z,99.99
2018-11-06T05:38:30.051Z,99.99
2018-11-06T05:39:30.156Z,99.99
2018-11-06T05:40:30.064Z,99.99
2018-11-06T05:41:30.033Z,99.99
2018-11-06T05:42:30.039Z,99.99
2018-11-06T05:43:29.992Z,99.99
2018-11-06T05:44:29.982Z,99.99
2018-11-06T05:45:30.030Z,99.99
2018-11-06T05:46:29.983Z,99.99
2018-11-06T05:47:29.969Z,99.99
2018-11-06T05:48:29.968Z,99.99
2018-11-06T05:49:29.929Z,99.99
2018-11-06T05:50:29.916Z,99.99
2018-11-06T05:51:29.908Z,99.99
2018-11-06T05:52:29.913Z,99.99
2018-11-06T05:53:29.906Z,99.99
2018-11-06T05:54:29.871Z,99.99
2018-11-06T05:55:29.878Z,99.99
2018-11-06T05:56:29.867Z,99.99
2018-11-06T05:57:29.834Z,99.99
2018-11-06T05:58:29.851Z,99.99
2018-11-06T05:59:29.811Z,99.99
2018-11-06T06:00:29.909Z,99.99
2018-11-06T06:01:29.819Z,99.99
2018-11-06T06:02:29.775Z,99.99
2018-11-06T06:03:29.785Z,99.99
2018-11-06T06:04:29.769Z,99.99
2018-11-06T06:05:29.743Z,99.99
2018-11-06T06:06:29.788Z,99.99
2018-11-06T06:07:29.719Z,99.99
2018-11-06T06:08:29.711Z,99.99
2018-11-06T06:09:29.729Z,99.99
2018-11-06T06:10:29.724Z,99.99
2018-11-06T06:11:29.682Z,99.99
2018-11-06T06:12:29.664Z,99.99
2018-11-06T06:13:29.657Z,99.99
2018-11-06T06:14:29.679Z,99.99
2018-11-06T06:15:29.634Z,99.99
2018-11-06T06:16:29.662Z,99.99
2018-11-06T06:17:29.646Z,99.99
2018-11-06T06:18:29.616Z,99.99
2018-11-06T06:19:29.607Z,99.99
2018-11-06T06:20:29.579Z,99.99
2018-11-06T06:21:29.564Z,99.99
2018-11-06T06:22:29.691Z,99.99
2018-11-06T06:23:29.560Z,99.99
2018-11-06T06:24:29.555Z,99.99
2018-11-06T06:25:29.521Z,99.99
2018-11-06T06:26:29.511Z,99.99
2018-11-06T06:27:29.498Z,99.99
2018-11-06T06:28:29.534Z,99.99
2018-11-06T06:29:29.478Z,99.99
2018-11-06T06:30:29.461Z,99.99
2018-11-06T06:31:29.468Z,99.99
2018-11-06T06:32:29.481Z,99.99
2018-11-06T06:33:29.434Z,99.99
2018-11-06T06:34:29.471Z,99.99
2018-11-06T06:35:29.404Z,99.99
2018-11-06T06:36:29.398Z,99.99
2018-11-06T06:37:29.411Z,99.99
2018-11-06T06:38:29.452Z,99.99
2018-11-06T06:39:29.444Z,99.99
2018-11-06T06:40:29.351Z,99.99
2018-11-06T06:41:29.341Z,99.99
2018-11-06T06:42:29.351Z,99.99
2018-11-06T06:43:29.319Z,99.99
2018-11-06T06:44:29.327Z,99.99
2018-11-06T06:45:29.295Z,99.99
2018-11-06T06:46:29.394Z,99.99
2018-11-06T06:47:29.274Z,99.99
2018-11-06T06:48:29.273Z,99.99
2018-11-06T06:49:29.277Z,99.99
2018-11-06T06:50:29.243Z,99.99
2018-11-06T06:51:29.236Z,99.99
2018-11-06T06:52:29.227Z,99.99
2018-11-06T06:53:29.204Z,99.99
2018-11-06T06:54:29.383Z,99.99
2018-11-06T06:55:29.185Z,99.99
2018-11-06T06:56:29.182Z,99.99
2018-11-06T06:57:29.221Z,99.99
2018-11-06T06:58:29.178Z,99.99
2018-11-06T06:59:29.136Z,99.99
2018-11-06T07:00:29.126Z,99.99
2018-11-06T07:01:29.119Z,99.99
2018-11-06T07:02:29.187Z,99.99
2018-11-06T07:03:29.090Z,99.99
2018-11-06T07:04:29.080Z,99.99
2018-11-06T07:05:29.084Z,99.99
2018-11-06T07:06:29.074Z,99.99
2018-11-06T07:07:29.080Z,99.99
2018-11-06T07:08:29.040Z,99.99
2018-11-06T07:09:29.023Z,99.99
2018-11-06T07:10:29.012Z,99.99
2018-11-06T07:11:29.012Z,99.99
2018-11-06T07:12:29.012Z,99.99
2018-11-06T07:13:28.990Z,99.99
2018-11-06T07:14:28.971Z,99.99
2018-11-06T07:15:28.989Z,99.99
2018-11-06T07:16:28.955Z,99.99
2018-11-06T07:17:28.937Z,99.99
2018-11-06T07:18:28.955Z,99.99
2018-11-06T07:19:28.930Z,99.99
2018-11-06T07:20:28.924Z,99.99
2018-11-06T07:21:28.889Z,99.99
2018-11-06T07:22:28.901Z,99.99
2018-11-06T07:23:28.874Z,99.99
2018-11-06T07:24:28.858Z,99.99
2018-11-06T07:25:28.875Z,99.99
2018-11-06T07:26:28.840Z,99.99
2018-11-06T07:27:28.821Z,99.99
2018-11-06T07:28:28.823Z,99.99
2018-11-06T07:29:28.798Z,99.99
2018-11-06T07:30:28.814Z,99.99
2018-11-06T07:31:28.782Z,99.99
2018-11-06T07:32:28.769Z,99.99
2018-11-06T07:33:28.778Z,99.99
2018-11-06T07:34:28.776Z,99.99
2018-11-06T07:35:28.811Z,99.99
2018-11-06T07:36:28.730Z,99.99
2018-11-06T07:37:28.716Z,99.99
2018-11-06T07:38:28.724Z,99.99
2018-11-06T07:39:28.695Z,99.99
2018-11-06T07:40:28.757Z,99.99
2018-11-06T07:41:28.667Z,99.99
2018-11-06T07:42:28.667Z,99.99
2018-11-06T07:43:28.682Z,99.99
2018-11-06T07:44:28.632Z,99.99
2018-11-06T07:45:28.634Z,99.99
2018-11-06T07:46:28.609Z,99.99
2018-11-06T07:47:28.603Z,99.99
2018-11-06T07:48:28.631Z,99.99
2018-11-06T07:49:28.586Z,99.99
2018-11-06T07:50:28.645Z,99.99
2018-11-06T07:51:28.551Z,99.99
2018-11-06T07:52:28.551Z,99.99
2018-11-06T07:53:28.567Z,99.99
2018-11-06T07:54:28.518Z,99.99
2018-11-06T07:55:28.519Z,99.99
2018-11-06T07:56:28.498Z,99.99
2018-11-06T07:57:28.506Z,99.99
2018-11-06T07:58:28.509Z,99.99
2018-11-06T07:59:28.468Z,99.99
2018-11-06T08:00:28.477Z,99.99
2018-11-06T08:01:28.447Z,99.99
2018-11-06T08:02:28.430Z,99.99
2018-11-06T08:03:28.417Z,99.99
2018-11-06T08:04:28.543Z,99.99
2018-11-06T08:05:28.415Z,99.99
2018-11-06T08:06:28.446Z,99.99
2018-11-06T08:07:28.381Z,99.99
2018-11-06T08:08:28.364Z,99.99
2018-11-06T08:09:28.495Z,99.99
2018-11-06T08:10:28.368Z,99.99
2018-11-06T08:11:28.330Z,99.99
2018-11-06T08:12:28.318Z,99.99
2018-11-06T08:13:28.329Z,99.99
2018-11-06T08:14:28.356Z,99.99
2018-11-06T08:15:28.325Z,99.99
2018-11-06T08:16:28.318Z,99.99
2018-11-06T08:17:28.260Z,99.99
2018-11-06T08:18:28.254Z,99.74
2018-11-06T08:19:28.239Z,99.99
2018-11-06T08:20:28.259Z,99.99
2018-11-06T08:21:28.260Z,99.02
2018-11-06T08:22:28.218Z,99.13
2018-11-06T08:23:28.245Z,98.71
2018-11-06T08:24:28.187Z,98.88
2018-11-06T08:25:28.174Z,98.25
2018-11-06T08:26:28.189Z,98.25
2018-11-06T08:27:28.183Z,98.46
2018-11-06T08:28:28.153Z,98.21
2018-11-06T08:29:28.152Z,98.52
2018-11-06T08:30:28.157Z,98.72
2018-11-06T08:31:28.853Z,98.16
2018-11-06T08:32:28.677Z,98.27
2018-11-06T08:33:28.088Z,98.16
2018-11-06T08:34:28.110Z,98.68
2018-11-06T08:35:28.058Z,97.61
2018-11-06T08:36:28.067Z,97.30
2018-11-06T08:37:28.060Z,97.36
2018-11-06T08:38:28.026Z,97.15
2018-11-06T08:39:28.039Z,97.45
2018-11-06T08:40:28.016Z,97.56
2018-11-06T08:41:28.083Z,97.56
2018-11-06T08:42:28.108Z,97.66
2018-11-06T08:43:27.969Z,96.94
2018-11-06T08:44:28.073Z,96.73
2018-11-06T08:45:27.952Z,96.12
2018-11-06T08:46:27.934Z,95.67
2018-11-06T08:47:28.120Z,95.87
2018-11-06T08:48:27.913Z,95.77
2018-11-06T08:49:27.901Z,96.08
2018-11-06T08:50:27.893Z,95.83
2018-11-06T08:51:27.886Z,95.72
2018-11-06T08:52:27.897Z,95.93
2018-11-06T08:53:27.862Z,96.14
2018-11-06T08:54:27.918Z,95.68
2018-11-06T08:55:27.858Z,95.89
2018-11-06T08:56:27.821Z,95.94
2018-11-06T08:57:27.837Z,95.12
2018-11-06T08:58:27.800Z,94.24
2018-11-06T08:59:27.790Z,93.79
2018-11-06T09:00:27.803Z,94.51
2018-11-06T09:01:27.767Z,93.79
2018-11-06T09:02:27.772Z,93.79
2018-11-06T09:03:27.769Z,93.17
2018-11-06T09:04:27.732Z,94.26
2018-11-06T09:05:27.748Z,94.67
2018-11-06T09:06:27.713Z,93.85
2018-11-06T09:07:27.703Z,94.05
2018-11-06T09:08:27.695Z,93.80
2018-11-06T09:09:27.705Z,93.80
2018-11-06T09:10:27.688Z,93.19
2018-11-06T09:11:27.658Z,92.78
2018-11-06T09:12:27.646Z,92.43
2018-11-06T09:13:27.635Z,92.02
2018-11-06T09:14:27.620Z,92.22
2018-11-06T09:15:27.647Z,92.74
2018-11-06T09:16:27.596Z,93.20
2018-11-06T09:17:27.587Z,92.49
2018-11-06T09:18:27.583Z,92.18
2018-11-06T09:19:27.588Z,92.59
2018-11-06T09:20:27.551Z,91.46
2018-11-06T09:21:27.541Z,91.05
2018-11-06T09:22:27.529Z,91.22
2018-11-06T09:23:28.042Z,91.63
2018-11-06T09:24:27.533Z,92.18
2018-11-06T09:25:27.532Z,91.63
2018-11-06T09:26:27.482Z,90.81
2018-11-06T09:27:27.475Z,90.09
2018-11-06T09:28:27.470Z,90.50
2018-11-06T09:29:27.479Z,90.45
2018-11-06T09:30:27.465Z,91.17
2018-11-06T09:31:27.445Z,90.97
2018-11-06T09:32:27.429Z,90.05
2018-11-06T09:33:27.411Z,89.12
2018-11-06T09:34:27.425Z,89.23
2018-11-06T09:35:27.389Z,88.82
2018-11-06T09:36:27.378Z,89.43
2018-11-06T09:37:27.360Z,88.41
2018-11-06T09:38:27.381Z,88.82
2018-11-06T09:39:27.365Z,89.33
2018-11-06T09:40:27.329Z,89.03
2018-11-06T09:41:27.421Z,89.64
2018-11-06T09:42:27.303Z,89.23
2018-11-06T09:43:27.332Z,89.50
2018-11-06T09:44:27.320Z,89.70
2018-11-06T09:45:27.358Z,89.86
2018-11-06T09:46:27.262Z,89.86
2018-11-06T09:47:27.279Z,89.92
2018-11-06T09:48:27.242Z,89.72
2018-11-06T09:49:27.223Z,89.72
2018-11-06T09:50:27.212Z,89.20
2018-11-06T09:51:27.227Z,89.00
2018-11-06T09:52:27.196Z,88.49
2018-11-06T09:53:27.217Z,87.57
2018-11-06T09:54:27.219Z,87.57
2018-11-06T09:55:27.156Z,87.61
2018-11-06T09:56:27.157Z,88.43
2018-11-06T09:57:27.136Z,87.88
2018-11-06T09:58:27.123Z,88.29
2018-11-06T09:59:27.137Z,88.55
2018-11-06T10:00:27.103Z,88.45
2018-11-06T10:01:27.133Z,88.61
2018-11-06T10:02:27.077Z,88.41
2018-11-06T10:03:27.067Z,88.31
2018-11-06T10:04:27.058Z,88.47
2018-11-06T10:05:27.073Z,87.45
2018-11-06T10:06:27.135Z,88.17
2018-11-06T10:07:27.240Z,86.83
2018-11-06T10:08:27.008Z,86.43
2018-11-06T10:09:26.999Z,84.49
2018-11-06T10:10:26.990Z,84.08
2018-11-06T10:11:27.117Z,84.28
2018-11-06T10:12:27.003Z,84.49
2018-11-06T10:13:26.987Z,85.16
2018-11-06T10:14:26.948Z,85.68
2018-11-06T10:15:26.946Z,84.66
2018-11-06T10:16:26.944Z,84.45
2018-11-06T10:17:26.931Z,85.02
2018-11-06T10:18:26.903Z,84.51
2018-11-06T10:19:26.889Z,83.39
2018-11-06T10:20:26.877Z,83.29
2018-11-06T10:21:26.926Z,82.84
2018-11-06T10:22:26.881Z,83.45
2018-11-06T10:23:26.862Z,83.45
2018-11-06T10:24:26.832Z,83.92
2018-11-06T10:25:26.821Z,82.23
2018-11-06T10:26:26.806Z,82.64
2018-11-06T10:27:26.823Z,82.43
2018-11-06T10:28:26.792Z,82.23
2018-11-06T10:29:26.773Z,82.84
2018-11-06T10:30:26.788Z,83.65
2018-11-06T10:31:26.762Z,81.82
2018-11-06T10:32:26.742Z,81.11
2018-11-06T10:33:26.755Z,81.82
2018-11-06T10:34:26.766Z,82.43
2018-11-06T10:35:26.703Z,82.54
2018-11-06T10:36:26.694Z,82.54
2018-11-06T10:37:26.682Z,82.74
2018-11-06T10:38:26.679Z,82.23
2018-11-06T10:39:26.689Z,81.72
2018-11-06T10:40:26.649Z,82.47
2018-11-06T10:41:26.640Z,83.56
2018-11-06T10:42:26.633Z,83.04
2018-11-06T10:43:26.630Z,80.60
2018-11-06T10:44:26.641Z,81.96
2018-11-06T10:45:26.597Z,81.62
2018-11-06T10:46:26.582Z,82.09
2018-11-06T10:47:26.566Z,82.70
2018-11-06T10:48:26.579Z,82.15
2018-11-06T10:49:26.581Z,81.17
2018-11-06T10:50:26.535Z,79.85
2018-11-06T10:51:26.537Z,80.46
2018-11-06T10:52:26.509Z,80.16
2018-11-06T10:53:26.510Z,80.46
2018-11-06T10:54:26.510Z,81.07
2018-11-06T10:55:26.500Z,79.75
2018-11-06T10:56:26.474Z,80.02
2018-11-06T10:57:26.454Z,79.16
2018-11-06T10:58:26.441Z,78.66
2018-11-06T10:59:26.443Z,78.72
2018-11-06T11:00:26.444Z,77.81
2018-11-06T11:01:26.413Z,78.55
2018-11-06T11:02:26.447Z,78.86
2018-11-06T11:03:26.422Z,79.68
2018-11-06T11:04:26.375Z,78.82
2018-11-06T11:05:26.371Z,77.74
2018-11-06T11:06:26.359Z,78.01
2018-11-06T11:07:26.379Z,78.62
2018-11-06T11:08:26.330Z,78.78
2018-11-06T11:09:26.320Z,77.87
2018-11-06T11:10:26.311Z,77.97
2018-11-06T11:11:26.305Z,78.28
2018-11-06T11:12:26.327Z,78.28
2018-11-06T11:13:26.341Z,77.56
2018-11-06T11:14:26.268Z,77.56
2018-11-06T11:15:26.250Z,78.44
2018-11-06T11:16:26.239Z,78.55
2018-11-06T11:17:26.257Z,76.31
2018-11-06T11:18:26.221Z,76.61
2018-11-06T11:19:26.206Z,78.55
2018-11-06T11:20:26.208Z,77.53
2018-11-06T11:21:26.183Z,76.65
2018-11-06T11:22:26.198Z,77.43
2018-11-06T11:23:26.164Z,77.94
2018-11-06T11:24:26.177Z,78.20
2018-11-06T11:25:26.175Z,78.61
2018-11-06T11:26:26.128Z,78.71
2018-11-06T11:27:26.117Z,77.59
2018-11-06T11:28:26.109Z,77.76
2018-11-06T11:29:26.123Z,76.75
2018-11-06T11:30:26.092Z,77.90
2018-11-06T11:31:26.125Z,77.59
2018-11-06T11:32:26.073Z,77.25
2018-11-06T11:33:26.046Z,77.76
2018-11-06T11:34:26.067Z,78.00
2018-11-06T11:35:26.049Z,77.56
2018-11-06T11:36:26.029Z,75.36
2018-11-06T11:37:26.003Z,77.49
2018-11-06T11:38:25.996Z,76.72
2018-11-06T11:39:25.988Z,77.53
2018-11-06T11:40:26.005Z,76.88
2018-11-06T11:41:25.966Z,76.78
2018-11-06T11:42:25.948Z,75.67
2018-11-06T11:43:25.963Z,76.28
2018-11-06T11:44:25.934Z,77.12
2018-11-06T11:45:25.924Z,77.73
2018-11-06T11:46:25.933Z,77.59
2018-11-06T11:47:25.899Z,77.70
2018-11-06T11:48:25.884Z,77.39
2018-11-06T11:49:25.869Z,75.93
2018-11-06T11:50:25.863Z,75.83
2018-11-06T11:51:25.870Z,76.78
2018-11-06T11:52:25.860Z,77.19
2018-11-06T11:53:25.824Z,77.53
2018-11-06T11:54:25.822Z,77.59
2018-11-06T11:55:25.805Z,78.00
2018-11-06T11:56:25.794Z,77.70
2018-11-06T11:57:25.821Z,77.59
2018-11-06T11:58:25.769Z,78.34
2018-11-06T11:59:25.761Z,78.04
2018-11-06T12:00:25.753Z,78.64
2018-11-06T12:01:25.743Z,79.05
2018-11-06T12:02:25.749Z,78.71
2018-11-06T12:03:25.734Z,78.51
2018-11-06T12:04:25.701Z,77.94
2018-11-06T12:05:25.693Z,77.39
2018-11-06T12:06:25.685Z,77.29
2018-11-06T12:07:25.671Z,77.49
2018-11-06T12:08:25.677Z,77.49
2018-11-06T12:09:25.650Z,77.39
2018-11-06T12:10:25.635Z,77.25
2018-11-06T12:11:25.627Z,77.36
2018-11-06T12:12:25.641Z,76.64
2018-11-06T12:13:25.599Z,76.58
2018-11-06T12:14:25.611Z,77.70
2018-11-06T12:15:25.576Z,77.19
2018-11-06T12:16:25.565Z,77.70
2018-11-06T12:17:25.608Z,76.68
2018-11-06T12:18:25.663Z,77.49
2018-11-06T12:19:25.555Z,77.56
2018-11-06T12:20:25.521Z,77.66
2018-11-06T12:21:25.514Z,77.56
2018-11-06T12:22:25.515Z,77.36
2018-11-06T12:23:25.489Z,77.83
2018-11-06T12:24:25.559Z,77.12
2018-11-06T12:25:25.828Z,77.25
2018-11-06T12:26:25.451Z,76.03
2018-11-06T12:27:25.440Z,76.75
2018-11-06T12:28:25.437Z,76.75
2018-11-06T12:29:25.447Z,75.93
2018-11-06T12:30:25.411Z,76.81
2018-11-06T12:31:25.412Z,77.32
2018-11-06T12:32:25.396Z,76.51
2018-11-06T12:33:25.377Z,76.34
2018-11-06T12:34:25.403Z,76.61
2018-11-06T12:35:25.359Z,77.52
2018-11-06T12:36:25.401Z,75.90
2018-11-06T12:37:25.337Z,76.06
2018-11-06T12:38:25.321Z,75.39
2018-11-06T12:39:25.327Z,76.20
2018-11-06T12:40:25.319Z,75.39
2018-11-06T12:41:25.287Z,74.95
2018-11-06T12:42:25.277Z,75.15
2018-11-06T12:43:25.345Z,75.35
2018-11-06T12:44:25.252Z,75.25
2018-11-06T12:45:25.275Z,75.35
2018-11-06T12:46:25.226Z,75.35
2018-11-06T12:47:25.217Z,75.25
2018-11-06T12:48:25.207Z,75.15
2018-11-06T12:49:25.204Z,76.06
2018-11-06T12:50:25.258Z,75.29
2018-11-06T12:51:25.176Z,75.86
2018-11-06T12:52:25.175Z,75.46